sensor_id;sensor_type;location;lat;lon;timestamp;P1;durP1;ratioP1;P2;durP2;ratioP2
16727;SDS011;8482;54.396;18.590;2023-11-19T00:00:45;19.77;;;12.33;;
16727;SDS011;8482;54.396;18.590;2023-11-19T00:03:11;18.83;;;11.33;;
16727;SDS011;8482;54.396;18.590;2023-11-19T00:05:38;17.43;;;10.37;;
16727;SDS011;8482;54.396;18.590;2023-11-19T00:08:04;20.17;;;11.37;;
16727;SDS011;8482;54.396;18.590;2023-11-19T00:10:31;20.13;;;10.97;;
16727;SDS011;8482;54.396;18.590;2023-11-19T00:12:57;19.27;;;11.17;;
16727;SDS011;8482;54.396;18.590;2023-11-19T00:15:23;18.33;;;10.67;;
16727;SDS011;8482;54.396;18.590;2023-11-19T00:17:49;19.97;;;11.63;;
16727;SDS011;8482;54.396;18.590;2023-11-19T00:20:16;20.87;;;11.63;;
16727;SDS011;8482;54.396;18.590;2023-11-19T00:22:48;19.60;;;10.77;;
16727;SDS011;8482;54.396;18.590;2023-11-19T00:25:17;18.07;;;11.03;;
16727;SDS011;8482;54.396;18.590;2023-11-19T00:27:45;20.17;;;12.03;;
16727;SDS011;8482;54.396;18.590;2023-11-19T00:30:11;19.47;;;11.33;;
16727;SDS011;8482;54.396;18.590;2023-11-19T00:32:38;20.30;;;11.40;;
16727;SDS011;8482;54.396;18.590;2023-11-19T00:35:05;20.77;;;11.57;;
16727;SDS011;8482;54.396;18.590;2023-11-19T00:37:32;18.97;;;10.97;;
16727;SDS011;8482;54.396;18.590;2023-11-19T00:39:58;18.73;;;10.40;;
16727;SDS011;8482;54.396;18.590;2023-11-19T00:42:24;18.33;;;10.40;;
16727;SDS011;8482;54.396;18.590;2023-11-19T00:44:50;16.67;;;9.97;;
16727;SDS011;8482;54.396;18.590;2023-11-19T00:47:16;19.40;;;11.20;;
16727;SDS011;8482;54.396;18.590;2023-11-19T00:49:45;18.60;;;10.80;;
16727;SDS011;8482;54.396;18.590;2023-11-19T00:52:14;18.00;;;10.07;;
16727;SDS011;8482;54.396;18.590;2023-11-19T00:54:40;18.97;;;10.47;;
16727;SDS011;8482;54.396;18.590;2023-11-19T00:57:06;16.47;;;9.87;;
16727;SDS011;8482;54.396;18.590;2023-11-19T00:59:32;18.30;;;10.30;;
16727;SDS011;8482;54.396;18.590;2023-11-19T01:01:58;19.83;;;10.30;;
16727;SDS011;8482;54.396;18.590;2023-11-19T01:04:28;17.93;;;10.40;;
16727;SDS011;8482;54.396;18.590;2023-11-19T01:07:03;19.03;;;10.30;;
16727;SDS011;8482;54.396;18.590;2023-11-19T01:09:30;15.93;;;9.47;;
16727;SDS011;8482;54.396;18.590;2023-11-19T01:11:58;17.57;;;10.10;;
16727;SDS011;8482;54.396;18.590;2023-11-19T01:14:25;19.80;;;10.87;;
16727;SDS011;8482;54.396;18.590;2023-11-19T01:16:52;19.70;;;10.80;;
16727;SDS011;8482;54.396;18.590;2023-11-19T01:19:19;16.97;;;10.10;;
16727;SDS011;8482;54.396;18.590;2023-11-19T01:21:47;20.30;;;11.10;;
16727;SDS011;8482;54.396;18.590;2023-11-19T01:24:14;18.00;;;10.03;;
16727;SDS011;8482;54.396;18.590;2023-11-19T01:26:40;18.73;;;10.73;;
16727;SDS011;8482;54.396;18.590;2023-11-19T01:29:14;15.23;;;9.37;;
16727;SDS011;8482;54.396;18.590;2023-11-19T01:31:41;19.63;;;11.20;;
16727;SDS011;8482;54.396;18.590;2023-11-19T01:34:16;16.93;;;9.50;;
16727;SDS011;8482;54.396;18.590;2023-11-19T01:36:42;18.20;;;9.83;;
16727;SDS011;8482;54.396;18.590;2023-11-19T01:39:07;16.53;;;9.20;;
16727;SDS011;8482;54.396;18.590;2023-11-19T01:41:34;19.03;;;10.37;;
16727;SDS011;8482;54.396;18.590;2023-11-19T01:44:05;15.37;;;9.53;;
16727;SDS011;8482;54.396;18.590;2023-11-19T01:46:31;18.10;;;11.20;;
16727;SDS011;8482;54.396;18.590;2023-11-19T01:48:58;18.43;;;10.63;;
16727;SDS011;8482;54.396;18.590;2023-11-19T01:51:25;18.70;;;10.33;;
16727;SDS011;8482;54.396;18.590;2023-11-19T01:53:52;17.13;;;9.63;;
16727;SDS011;8482;54.396;18.590;2023-11-19T01:56:19;18.00;;;10.53;;
16727;SDS011;8482;54.396;18.590;2023-11-19T01:58:47;17.83;;;10.27;;
16727;SDS011;8482;54.396;18.590;2023-11-19T02:01:15;17.70;;;10.63;;
16727;SDS011;8482;54.396;18.590;2023-11-19T02:03:41;15.83;;;9.40;;
16727;SDS011;8482;54.396;18.590;2023-11-19T02:06:08;16.37;;;9.50;;
16727;SDS011;8482;54.396;18.590;2023-11-19T02:08:35;16.43;;;8.30;;
16727;SDS011;8482;54.396;18.590;2023-11-19T02:11:02;13.10;;;7.80;;
16727;SDS011;8482;54.396;18.590;2023-11-19T02:13:28;15.47;;;8.47;;
16727;SDS011;8482;54.396;18.590;2023-11-19T02:15:54;15.70;;;7.80;;
16727;SDS011;8482;54.396;18.590;2023-11-19T02:18:24;15.40;;;8.23;;
16727;SDS011;8482;54.396;18.590;2023-11-19T02:20:58;14.30;;;7.83;;
16727;SDS011;8482;54.396;18.590;2023-11-19T02:23:28;13.37;;;7.30;;
16727;SDS011;8482;54.396;18.590;2023-11-19T02:28:39;14.27;;;7.80;;
16727;SDS011;8482;54.396;18.590;2023-11-19T02:31:07;12.23;;;6.83;;
16727;SDS011;8482;54.396;18.590;2023-11-19T02:33:36;14.10;;;7.17;;
16727;SDS011;8482;54.396;18.590;2023-11-19T02:36:04;15.00;;;7.13;;
16727;SDS011;8482;54.396;18.590;2023-11-19T02:38:32;12.80;;;7.00;;
16727;SDS011;8482;54.396;18.590;2023-11-19T02:40:59;14.67;;;6.93;;
16727;SDS011;8482;54.396;18.590;2023-11-19T02:43:30;11.60;;;6.37;;
16727;SDS011;8482;54.396;18.590;2023-11-19T02:45:58;12.40;;;6.13;;
16727;SDS011;8482;54.396;18.590;2023-11-19T02:48:31;14.57;;;7.63;;
16727;SDS011;8482;54.396;18.590;2023-11-19T02:51:00;11.87;;;6.73;;
16727;SDS011;8482;54.396;18.590;2023-11-19T02:53:30;13.73;;;7.93;;
16727;SDS011;8482;54.396;18.590;2023-11-19T02:55:56;12.20;;;7.23;;
16727;SDS011;8482;54.396;18.590;2023-11-19T02:58:26;12.07;;;6.97;;
16727;SDS011;8482;54.396;18.590;2023-11-19T03:00:53;12.67;;;6.80;;
16727;SDS011;8482;54.396;18.590;2023-11-19T03:03:24;13.07;;;7.27;;
16727;SDS011;8482;54.396;18.590;2023-11-19T03:05:54;12.87;;;6.87;;
16727;SDS011;8482;54.396;18.590;2023-11-19T03:08:20;14.13;;;7.50;;
16727;SDS011;8482;54.396;18.590;2023-11-19T03:10:47;12.73;;;7.97;;
16727;SDS011;8482;54.396;18.590;2023-11-19T03:13:13;13.53;;;8.13;;
16727;SDS011;8482;54.396;18.590;2023-11-19T03:15:40;13.27;;;7.30;;
16727;SDS011;8482;54.396;18.590;2023-11-19T03:18:06;16.27;;;8.73;;
16727;SDS011;8482;54.396;18.590;2023-11-19T03:20:33;14.73;;;8.20;;
16727;SDS011;8482;54.396;18.590;2023-11-19T03:22:59;15.60;;;8.87;;
16727;SDS011;8482;54.396;18.590;2023-11-19T03:25:26;14.10;;;8.57;;
16727;SDS011;8482;54.396;18.590;2023-11-19T03:27:58;16.57;;;9.27;;
16727;SDS011;8482;54.396;18.590;2023-11-19T03:30:26;14.93;;;9.00;;
16727;SDS011;8482;54.396;18.590;2023-11-19T03:32:53;17.43;;;9.83;;
16727;SDS011;8482;54.396;18.590;2023-11-19T03:35:20;16.83;;;9.10;;
16727;SDS011;8482;54.396;18.590;2023-11-19T03:37:46;16.43;;;10.00;;
16727;SDS011;8482;54.396;18.590;2023-11-19T03:40:12;16.30;;;9.60;;
16727;SDS011;8482;54.396;18.590;2023-11-19T03:42:38;15.20;;;9.13;;
16727;SDS011;8482;54.396;18.590;2023-11-19T03:45:07;15.10;;;8.90;;
16727;SDS011;8482;54.396;18.590;2023-11-19T03:47:37;16.77;;;9.10;;
16727;SDS011;8482;54.396;18.590;2023-11-19T03:50:03;14.40;;;9.20;;
16727;SDS011;8482;54.396;18.590;2023-11-19T03:52:30;18.00;;;10.23;;
16727;SDS011;8482;54.396;18.590;2023-11-19T03:54:56;18.83;;;10.67;;
16727;SDS011;8482;54.396;18.590;2023-11-19T03:57:22;19.57;;;9.87;;
16727;SDS011;8482;54.396;18.590;2023-11-19T03:59:49;17.40;;;9.77;;
16727;SDS011;8482;54.396;18.590;2023-11-19T04:02:15;19.73;;;10.67;;
16727;SDS011;8482;54.396;18.590;2023-11-19T04:04:41;17.40;;;9.33;;
16727;SDS011;8482;54.396;18.590;2023-11-19T04:07:07;16.33;;;9.37;;
16727;SDS011;8482;54.396;18.590;2023-11-19T04:09:33;18.80;;;9.80;;
16727;SDS011;8482;54.396;18.590;2023-11-19T04:11:59;16.00;;;9.53;;
16727;SDS011;8482;54.396;18.590;2023-11-19T04:14:26;19.03;;;10.37;;
16727;SDS011;8482;54.396;18.590;2023-11-19T04:16:52;15.83;;;9.53;;
16727;SDS011;8482;54.396;18.590;2023-11-19T04:19:18;17.17;;;9.80;;
16727;SDS011;8482;54.396;18.590;2023-11-19T04:21:45;17.17;;;9.17;;
16727;SDS011;8482;54.396;18.590;2023-11-19T04:24:11;16.30;;;9.77;;
16727;SDS011;8482;54.396;18.590;2023-11-19T04:26:41;16.70;;;9.93;;
16727;SDS011;8482;54.396;18.590;2023-11-19T04:29:10;15.17;;;9.00;;
16727;SDS011;8482;54.396;18.590;2023-11-19T04:31:38;15.80;;;8.87;;
16727;SDS011;8482;54.396;18.590;2023-11-19T04:34:05;15.77;;;8.30;;
16727;SDS011;8482;54.396;18.590;2023-11-19T04:36:31;18.00;;;9.13;;
16727;SDS011;8482;54.396;18.590;2023-11-19T04:38:58;17.83;;;9.00;;
16727;SDS011;8482;54.396;18.590;2023-11-19T04:41:25;14.23;;;8.50;;
16727;SDS011;8482;54.396;18.590;2023-11-19T04:43:55;13.77;;;7.20;;
16727;SDS011;8482;54.396;18.590;2023-11-19T04:46:21;16.63;;;8.67;;
16727;SDS011;8482;54.396;18.590;2023-11-19T04:48:48;15.17;;;8.97;;
16727;SDS011;8482;54.396;18.590;2023-11-19T04:51:15;14.03;;;7.57;;
16727;SDS011;8482;54.396;18.590;2023-11-19T04:53:41;14.00;;;8.63;;
16727;SDS011;8482;54.396;18.590;2023-11-19T04:56:10;13.93;;;8.10;;
16727;SDS011;8482;54.396;18.590;2023-11-19T04:58:37;14.13;;;8.30;;
16727;SDS011;8482;54.396;18.590;2023-11-19T05:01:03;13.87;;;7.80;;
16727;SDS011;8482;54.396;18.590;2023-11-19T05:03:32;15.30;;;7.77;;
16727;SDS011;8482;54.396;18.590;2023-11-19T05:05:58;15.20;;;8.80;;
16727;SDS011;8482;54.396;18.590;2023-11-19T05:08:24;13.80;;;7.80;;
16727;SDS011;8482;54.396;18.590;2023-11-19T05:10:50;14.50;;;7.87;;
16727;SDS011;8482;54.396;18.590;2023-11-19T05:13:16;16.43;;;7.83;;
16727;SDS011;8482;54.396;18.590;2023-11-19T05:15:42;14.57;;;7.37;;
16727;SDS011;8482;54.396;18.590;2023-11-19T05:18:08;14.77;;;7.63;;
16727;SDS011;8482;54.396;18.590;2023-11-19T05:20:34;14.37;;;8.50;;
16727;SDS011;8482;54.396;18.590;2023-11-19T05:22:59;15.67;;;7.80;;
16727;SDS011;8482;54.396;18.590;2023-11-19T05:25:26;14.53;;;7.63;;
16727;SDS011;8482;54.396;18.590;2023-11-19T05:27:52;13.90;;;7.20;;
16727;SDS011;8482;54.396;18.590;2023-11-19T05:30:18;13.23;;;7.47;;
16727;SDS011;8482;54.396;18.590;2023-11-19T05:32:44;13.63;;;7.87;;
16727;SDS011;8482;54.396;18.590;2023-11-19T05:35:11;14.80;;;7.63;;
16727;SDS011;8482;54.396;18.590;2023-11-19T05:37:37;13.50;;;6.93;;
16727;SDS011;8482;54.396;18.590;2023-11-19T05:40:03;15.10;;;8.40;;
16727;SDS011;8482;54.396;18.590;2023-11-19T05:42:39;12.57;;;6.53;;
16727;SDS011;8482;54.396;18.590;2023-11-19T05:45:06;14.40;;;7.83;;
16727;SDS011;8482;54.396;18.590;2023-11-19T05:47:34;12.23;;;7.50;;
16727;SDS011;8482;54.396;18.590;2023-11-19T05:49:59;13.93;;;7.30;;
16727;SDS011;8482;54.396;18.590;2023-11-19T05:52:25;13.43;;;7.47;;
16727;SDS011;8482;54.396;18.590;2023-11-19T05:54:51;15.17;;;8.33;;
16727;SDS011;8482;54.396;18.590;2023-11-19T05:57:17;13.47;;;7.63;;
16727;SDS011;8482;54.396;18.590;2023-11-19T05:59:49;12.53;;;7.20;;
16727;SDS011;8482;54.396;18.590;2023-11-19T06:02:15;14.77;;;7.83;;
16727;SDS011;8482;54.396;18.590;2023-11-19T06:04:41;14.30;;;7.97;;
16727;SDS011;8482;54.396;18.590;2023-11-19T06:07:09;14.00;;;7.77;;
16727;SDS011;8482;54.396;18.590;2023-11-19T06:09:35;14.57;;;7.87;;
16727;SDS011;8482;54.396;18.590;2023-11-19T06:12:00;14.07;;;7.80;;
16727;SDS011;8482;54.396;18.590;2023-11-19T06:14:31;14.60;;;7.70;;
16727;SDS011;8482;54.396;18.590;2023-11-19T06:16:57;11.50;;;7.13;;
16727;SDS011;8482;54.396;18.590;2023-11-19T06:19:22;14.63;;;7.83;;
16727;SDS011;8482;54.396;18.590;2023-11-19T06:21:50;11.73;;;7.20;;
16727;SDS011;8482;54.396;18.590;2023-11-19T06:24:16;15.50;;;7.83;;
16727;SDS011;8482;54.396;18.590;2023-11-19T06:26:42;13.10;;;6.93;;
16727;SDS011;8482;54.396;18.590;2023-11-19T06:29:08;14.50;;;7.63;;
16727;SDS011;8482;54.396;18.590;2023-11-19T06:31:34;12.67;;;7.20;;
16727;SDS011;8482;54.396;18.590;2023-11-19T06:33:59;14.60;;;8.37;;
16727;SDS011;8482;54.396;18.590;2023-11-19T06:36:25;13.63;;;8.00;;
16727;SDS011;8482;54.396;18.590;2023-11-19T06:38:51;14.47;;;8.37;;
16727;SDS011;8482;54.396;18.590;2023-11-19T06:41:17;15.37;;;8.20;;
16727;SDS011;8482;54.396;18.590;2023-11-19T06:43:43;12.63;;;7.97;;
16727;SDS011;8482;54.396;18.590;2023-11-19T06:46:15;13.47;;;8.27;;
16727;SDS011;8482;54.396;18.590;2023-11-19T06:48:42;14.53;;;8.53;;
16727;SDS011;8482;54.396;18.590;2023-11-19T06:51:09;14.27;;;8.37;;
16727;SDS011;8482;54.396;18.590;2023-11-19T06:53:36;14.30;;;7.53;;
16727;SDS011;8482;54.396;18.590;2023-11-19T06:56:02;14.37;;;7.90;;
16727;SDS011;8482;54.396;18.590;2023-11-19T06:58:31;13.73;;;8.00;;
16727;SDS011;8482;54.396;18.590;2023-11-19T07:01:01;13.93;;;7.53;;
16727;SDS011;8482;54.396;18.590;2023-11-19T07:03:26;13.43;;;7.63;;
16727;SDS011;8482;54.396;18.590;2023-11-19T07:05:52;16.40;;;8.83;;
16727;SDS011;8482;54.396;18.590;2023-11-19T07:08:18;14.50;;;8.37;;
16727;SDS011;8482;54.396;18.590;2023-11-19T07:10:44;15.97;;;8.07;;
16727;SDS011;8482;54.396;18.590;2023-11-19T07:13:12;15.43;;;9.07;;
16727;SDS011;8482;54.396;18.590;2023-11-19T07:15:38;13.47;;;8.07;;
16727;SDS011;8482;54.396;18.590;2023-11-19T07:18:04;15.67;;;8.27;;
16727;SDS011;8482;54.396;18.590;2023-11-19T07:20:30;13.23;;;7.90;;
16727;SDS011;8482;54.396;18.590;2023-11-19T07:22:56;15.07;;;8.60;;
16727;SDS011;8482;54.396;18.590;2023-11-19T07:25:22;16.67;;;8.63;;
16727;SDS011;8482;54.396;18.590;2023-11-19T07:27:48;15.00;;;9.13;;
16727;SDS011;8482;54.396;18.590;2023-11-19T07:30:14;15.00;;;8.67;;
16727;SDS011;8482;54.396;18.590;2023-11-19T07:32:40;16.20;;;8.60;;
16727;SDS011;8482;54.396;18.590;2023-11-19T07:35:06;18.00;;;9.10;;
16727;SDS011;8482;54.396;18.590;2023-11-19T07:37:32;14.87;;;8.00;;
16727;SDS011;8482;54.396;18.590;2023-11-19T07:39:58;16.40;;;8.63;;
16727;SDS011;8482;54.396;18.590;2023-11-19T07:42:24;13.53;;;8.00;;
16727;SDS011;8482;54.396;18.590;2023-11-19T07:44:50;13.37;;;7.33;;
16727;SDS011;8482;54.396;18.590;2023-11-19T07:47:15;14.10;;;8.30;;
16727;SDS011;8482;54.396;18.590;2023-11-19T07:49:41;15.33;;;8.30;;
16727;SDS011;8482;54.396;18.590;2023-11-19T07:52:09;13.37;;;7.03;;
16727;SDS011;8482;54.396;18.590;2023-11-19T07:54:35;15.07;;;8.00;;
16727;SDS011;8482;54.396;18.590;2023-11-19T07:57:00;13.47;;;7.73;;
16727;SDS011;8482;54.396;18.590;2023-11-19T07:59:26;13.40;;;7.87;;
16727;SDS011;8482;54.396;18.590;2023-11-19T08:01:52;13.30;;;7.53;;
16727;SDS011;8482;54.396;18.590;2023-11-19T08:04:18;12.03;;;6.37;;
16727;SDS011;8482;54.396;18.590;2023-11-19T08:06:44;12.00;;;7.20;;
16727;SDS011;8482;54.396;18.590;2023-11-19T08:09:10;12.70;;;6.50;;
16727;SDS011;8482;54.396;18.590;2023-11-19T08:11:39;12.63;;;6.80;;
16727;SDS011;8482;54.396;18.590;2023-11-19T08:14:06;13.10;;;7.03;;
16727;SDS011;8482;54.396;18.590;2023-11-19T08:16:32;11.40;;;7.00;;
16727;SDS011;8482;54.396;18.590;2023-11-19T08:18:57;13.07;;;6.90;;
16727;SDS011;8482;54.396;18.590;2023-11-19T08:21:24;12.30;;;6.77;;
16727;SDS011;8482;54.396;18.590;2023-11-19T08:23:52;12.40;;;6.43;;
16727;SDS011;8482;54.396;18.590;2023-11-19T08:26:17;12.03;;;7.20;;
16727;SDS011;8482;54.396;18.590;2023-11-19T08:28:44;12.80;;;6.43;;
16727;SDS011;8482;54.396;18.590;2023-11-19T08:31:09;12.80;;;6.60;;
16727;SDS011;8482;54.396;18.590;2023-11-19T08:33:35;10.30;;;5.80;;
16727;SDS011;8482;54.396;18.590;2023-11-19T08:36:01;13.07;;;6.70;;
16727;SDS011;8482;54.396;18.590;2023-11-19T08:38:29;12.83;;;6.27;;
16727;SDS011;8482;54.396;18.590;2023-11-19T08:40:54;10.27;;;6.13;;
16727;SDS011;8482;54.396;18.590;2023-11-19T08:43:25;11.77;;;6.47;;
16727;SDS011;8482;54.396;18.590;2023-11-19T08:45:52;12.83;;;6.87;;
16727;SDS011;8482;54.396;18.590;2023-11-19T08:48:17;12.87;;;7.37;;
16727;SDS011;8482;54.396;18.590;2023-11-19T08:50:43;12.80;;;6.97;;
16727;SDS011;8482;54.396;18.590;2023-11-19T08:53:09;12.00;;;6.63;;
16727;SDS011;8482;54.396;18.590;2023-11-19T08:55:35;13.03;;;6.73;;
16727;SDS011;8482;54.396;18.590;2023-11-19T08:58:00;10.83;;;6.33;;
16727;SDS011;8482;54.396;18.590;2023-11-19T09:00:27;14.63;;;7.10;;
16727;SDS011;8482;54.396;18.590;2023-11-19T09:02:53;14.10;;;7.50;;
16727;SDS011;8482;54.396;18.590;2023-11-19T09:05:18;11.43;;;6.20;;
16727;SDS011;8482;54.396;18.590;2023-11-19T09:07:44;11.67;;;7.10;;
16727;SDS011;8482;54.396;18.590;2023-11-19T09:10:10;11.93;;;6.37;;
16727;SDS011;8482;54.396;18.590;2023-11-19T09:12:36;14.07;;;6.80;;
16727;SDS011;8482;54.396;18.590;2023-11-19T09:15:02;11.80;;;6.70;;
16727;SDS011;8482;54.396;18.590;2023-11-19T09:17:29;12.97;;;7.63;;
16727;SDS011;8482;54.396;18.590;2023-11-19T09:19:55;13.30;;;6.43;;
16727;SDS011;8482;54.396;18.590;2023-11-19T09:22:20;12.17;;;7.60;;
16727;SDS011;8482;54.396;18.590;2023-11-19T09:24:46;11.53;;;6.37;;
16727;SDS011;8482;54.396;18.590;2023-11-19T09:27:13;10.03;;;6.03;;
16727;SDS011;8482;54.396;18.590;2023-11-19T09:29:38;12.27;;;6.83;;
16727;SDS011;8482;54.396;18.590;2023-11-19T09:32:05;11.43;;;7.10;;
16727;SDS011;8482;54.396;18.590;2023-11-19T09:34:32;12.20;;;6.80;;
16727;SDS011;8482;54.396;18.590;2023-11-19T09:36:58;11.60;;;6.43;;
16727;SDS011;8482;54.396;18.590;2023-11-19T09:39:23;12.40;;;6.60;;
16727;SDS011;8482;54.396;18.590;2023-11-19T09:41:50;11.53;;;6.50;;
16727;SDS011;8482;54.396;18.590;2023-11-19T09:44:17;11.60;;;6.77;;
16727;SDS011;8482;54.396;18.590;2023-11-19T09:46:44;14.23;;;7.03;;
16727;SDS011;8482;54.396;18.590;2023-11-19T09:49:11;14.87;;;7.00;;
16727;SDS011;8482;54.396;18.590;2023-11-19T09:51:38;12.87;;;7.10;;
16727;SDS011;8482;54.396;18.590;2023-11-19T09:54:05;12.17;;;6.80;;
16727;SDS011;8482;54.396;18.590;2023-11-19T09:56:31;10.53;;;6.43;;
16727;SDS011;8482;54.396;18.590;2023-11-19T09:59:01;12.00;;;6.93;;
16727;SDS011;8482;54.396;18.590;2023-11-19T10:01:27;13.07;;;7.20;;
16727;SDS011;8482;54.396;18.590;2023-11-19T10:03:54;14.57;;;7.33;;
16727;SDS011;8482;54.396;18.590;2023-11-19T10:06:21;11.77;;;6.37;;
16727;SDS011;8482;54.396;18.590;2023-11-19T10:08:48;12.37;;;6.57;;
16727;SDS011;8482;54.396;18.590;2023-11-19T10:11:13;12.73;;;6.97;;
16727;SDS011;8482;54.396;18.590;2023-11-19T10:13:40;12.07;;;6.97;;
16727;SDS011;8482;54.396;18.590;2023-11-19T10:16:13;9.83;;;5.93;;
16727;SDS011;8482;54.396;18.590;2023-11-19T10:18:47;14.30;;;7.90;;
16727;SDS011;8482;54.396;18.590;2023-11-19T10:21:17;15.10;;;8.50;;
16727;SDS011;8482;54.396;18.590;2023-11-19T10:23:51;15.33;;;8.43;;
16727;SDS011;8482;54.396;18.590;2023-11-19T10:26:22;13.40;;;7.57;;
16727;SDS011;8482;54.396;18.590;2023-11-19T10:28:48;16.10;;;8.90;;
16727;SDS011;8482;54.396;18.590;2023-11-19T10:31:15;15.43;;;8.50;;
16727;SDS011;8482;54.396;18.590;2023-11-19T10:33:43;13.70;;;8.13;;
16727;SDS011;8482;54.396;18.590;2023-11-19T10:36:10;13.77;;;7.87;;
16727;SDS011;8482;54.396;18.590;2023-11-19T10:38:37;14.57;;;8.37;;
16727;SDS011;8482;54.396;18.590;2023-11-19T10:41:05;14.20;;;8.00;;
16727;SDS011;8482;54.396;18.590;2023-11-19T10:43:32;16.37;;;8.53;;
16727;SDS011;8482;54.396;18.590;2023-11-19T10:46:11;16.17;;;9.73;;
16727;SDS011;8482;54.396;18.590;2023-11-19T10:48:40;16.37;;;9.50;;
16727;SDS011;8482;54.396;18.590;2023-11-19T10:51:06;15.20;;;9.43;;
16727;SDS011;8482;54.396;18.590;2023-11-19T10:53:37;16.20;;;8.97;;
16727;SDS011;8482;54.396;18.590;2023-11-19T10:56:09;15.67;;;8.57;;
16727;SDS011;8482;54.396;18.590;2023-11-19T10:58:36;17.10;;;9.77;;
16727;SDS011;8482;54.396;18.590;2023-11-19T11:01:13;16.20;;;9.37;;
16727;SDS011;8482;54.396;18.590;2023-11-19T11:03:46;17.57;;;9.30;;
16727;SDS011;8482;54.396;18.590;2023-11-19T11:06:12;17.70;;;9.97;;
16727;SDS011;8482;54.396;18.590;2023-11-19T11:08:39;17.30;;;10.10;;
16727;SDS011;8482;54.396;18.590;2023-11-19T11:11:05;16.77;;;9.40;;
16727;SDS011;8482;54.396;18.590;2023-11-19T11:13:33;16.90;;;9.20;;
16727;SDS011;8482;54.396;18.590;2023-11-19T11:16:02;16.20;;;9.57;;
16727;SDS011;8482;54.396;18.590;2023-11-19T11:18:32;17.83;;;9.93;;
16727;SDS011;8482;54.396;18.590;2023-11-19T11:21:00;18.23;;;9.70;;
16727;SDS011;8482;54.396;18.590;2023-11-19T11:26:51;17.40;;;9.23;;
16727;SDS011;8482;54.396;18.590;2023-11-19T11:29:50;14.87;;;8.60;;
16727;SDS011;8482;54.396;18.590;2023-11-19T11:38:30;20.03;;;11.50;;
16727;SDS011;8482;54.396;18.590;2023-11-19T11:41:20;19.87;;;10.77;;
16727;SDS011;8482;54.396;18.590;2023-11-19T11:43:49;21.33;;;11.53;;
16727;SDS011;8482;54.396;18.590;2023-11-19T11:49:07;24.87;;;12.70;;
16727;SDS011;8482;54.396;18.590;2023-11-19T12:00:02;25.37;;;12.80;;
16727;SDS011;8482;54.396;18.590;2023-11-19T12:02:30;24.13;;;12.63;;
16727;SDS011;8482;54.396;18.590;2023-11-19T12:04:56;22.33;;;12.87;;
16727;SDS011;8482;54.396;18.590;2023-11-19T12:07:23;24.13;;;12.50;;
16727;SDS011;8482;54.396;18.590;2023-11-19T12:10:05;21.17;;;11.13;;
16727;SDS011;8482;54.396;18.590;2023-11-19T12:12:33;22.73;;;11.80;;
16727;SDS011;8482;54.396;18.590;2023-11-19T12:20:14;22.07;;;11.97;;
16727;SDS011;8482;54.396;18.590;2023-11-19T12:22:42;23.07;;;12.87;;
16727;SDS011;8482;54.396;18.590;2023-11-19T12:25:10;24.10;;;13.00;;
16727;SDS011;8482;54.396;18.590;2023-11-19T12:27:41;22.33;;;11.50;;
16727;SDS011;8482;54.396;18.590;2023-11-19T12:30:16;21.63;;;12.23;;
16727;SDS011;8482;54.396;18.590;2023-11-19T12:32:49;23.70;;;12.27;;
16727;SDS011;8482;54.396;18.590;2023-11-19T12:35:18;25.30;;;13.10;;
16727;SDS011;8482;54.396;18.590;2023-11-19T12:37:51;24.80;;;13.13;;
16727;SDS011;8482;54.396;18.590;2023-11-19T12:42:48;29.60;;;13.80;;
16727;SDS011;8482;54.396;18.590;2023-11-19T12:45:15;29.07;;;13.77;;
16727;SDS011;8482;54.396;18.590;2023-11-19T12:47:42;25.07;;;12.93;;
16727;SDS011;8482;54.396;18.590;2023-11-19T12:50:09;27.90;;;13.97;;
16727;SDS011;8482;54.396;18.590;2023-11-19T12:52:36;29.17;;;13.60;;
16727;SDS011;8482;54.396;18.590;2023-11-19T12:55:03;29.47;;;15.40;;
16727;SDS011;8482;54.396;18.590;2023-11-19T12:57:53;26.77;;;14.33;;
16727;SDS011;8482;54.396;18.590;2023-11-19T13:00:23;25.60;;;13.13;;
16727;SDS011;8482;54.396;18.590;2023-11-19T13:02:52;31.80;;;15.37;;
16727;SDS011;8482;54.396;18.590;2023-11-19T13:10:28;29.07;;;15.53;;
16727;SDS011;8482;54.396;18.590;2023-11-19T13:13:07;30.50;;;15.53;;
16727;SDS011;8482;54.396;18.590;2023-11-19T13:15:34;29.53;;;15.17;;
16727;SDS011;8482;54.396;18.590;2023-11-19T13:18:01;29.13;;;15.17;;
16727;SDS011;8482;54.396;18.590;2023-11-19T13:20:27;30.37;;;15.03;;
16727;SDS011;8482;54.396;18.590;2023-11-19T13:22:55;32.00;;;15.23;;
16727;SDS011;8482;54.396;18.590;2023-11-19T13:25:25;29.90;;;15.63;;
16727;SDS011;8482;54.396;18.590;2023-11-19T13:27:52;30.37;;;15.60;;
16727;SDS011;8482;54.396;18.590;2023-11-19T13:30:20;30.97;;;15.10;;
16727;SDS011;8482;54.396;18.590;2023-11-19T13:32:50;28.70;;;14.83;;
16727;SDS011;8482;54.396;18.590;2023-11-19T13:35:17;27.50;;;15.20;;
16727;SDS011;8482;54.396;18.590;2023-11-19T13:37:44;29.23;;;15.60;;
16727;SDS011;8482;54.396;18.590;2023-11-19T13:40:11;27.67;;;13.93;;
16727;SDS011;8482;54.396;18.590;2023-11-19T13:42:40;28.63;;;14.87;;
16727;SDS011;8482;54.396;18.590;2023-11-19T13:45:08;29.23;;;16.10;;
16727;SDS011;8482;54.396;18.590;2023-11-19T13:47:42;32.73;;;16.37;;
16727;SDS011;8482;54.396;18.590;2023-11-19T13:50:10;29.60;;;15.37;;
16727;SDS011;8482;54.396;18.590;2023-11-19T13:52:42;32.80;;;15.80;;
16727;SDS011;8482;54.396;18.590;2023-11-19T13:55:13;30.07;;;15.30;;
16727;SDS011;8482;54.396;18.590;2023-11-19T13:57:40;32.10;;;16.03;;
16727;SDS011;8482;54.396;18.590;2023-11-19T14:00:08;27.60;;;14.80;;
16727;SDS011;8482;54.396;18.590;2023-11-19T14:02:41;28.53;;;15.90;;
16727;SDS011;8482;54.396;18.590;2023-11-19T14:05:11;27.43;;;14.13;;
16727;SDS011;8482;54.396;18.590;2023-11-19T14:07:38;28.10;;;14.73;;
16727;SDS011;8482;54.396;18.590;2023-11-19T14:10:05;29.70;;;15.13;;
16727;SDS011;8482;54.396;18.590;2023-11-19T14:12:34;27.43;;;14.37;;
16727;SDS011;8482;54.396;18.590;2023-11-19T14:15:02;25.97;;;13.60;;
16727;SDS011;8482;54.396;18.590;2023-11-19T14:17:32;27.23;;;13.87;;
16727;SDS011;8482;54.396;18.590;2023-11-19T14:19:59;26.20;;;14.13;;
16727;SDS011;8482;54.396;18.590;2023-11-19T14:22:25;27.93;;;14.77;;
16727;SDS011;8482;54.396;18.590;2023-11-19T14:24:52;26.30;;;14.33;;
16727;SDS011;8482;54.396;18.590;2023-11-19T14:27:18;31.03;;;15.10;;
16727;SDS011;8482;54.396;18.590;2023-11-19T14:29:44;26.20;;;15.30;;
16727;SDS011;8482;54.396;18.590;2023-11-19T14:32:10;28.13;;;14.33;;
16727;SDS011;8482;54.396;18.590;2023-11-19T14:34:36;25.43;;;13.30;;
16727;SDS011;8482;54.396;18.590;2023-11-19T14:37:02;28.10;;;13.80;;
16727;SDS011;8482;54.396;18.590;2023-11-19T14:39:29;26.23;;;13.93;;
16727;SDS011;8482;54.396;18.590;2023-11-19T14:41:57;27.27;;;13.67;;
16727;SDS011;8482;54.396;18.590;2023-11-19T14:44:26;28.60;;;14.40;;
16727;SDS011;8482;54.396;18.590;2023-11-19T14:46:54;27.30;;;13.23;;
16727;SDS011;8482;54.396;18.590;2023-11-19T14:49:19;26.90;;;12.73;;
16727;SDS011;8482;54.396;18.590;2023-11-19T14:51:45;28.70;;;14.53;;
16727;SDS011;8482;54.396;18.590;2023-11-19T14:54:11;28.17;;;13.70;;
16727;SDS011;8482;54.396;18.590;2023-11-19T14:56:39;22.93;;;11.97;;
16727;SDS011;8482;54.396;18.590;2023-11-19T14:59:05;26.97;;;13.53;;
16727;SDS011;8482;54.396;18.590;2023-11-19T15:01:32;28.33;;;14.53;;
16727;SDS011;8482;54.396;18.590;2023-11-19T15:03:58;26.47;;;14.77;;
16727;SDS011;8482;54.396;18.590;2023-11-19T15:06:24;25.37;;;13.20;;
16727;SDS011;8482;54.396;18.590;2023-11-19T15:08:56;26.23;;;13.80;;